sensor_id;sensor_type;location;lat;lon;timestamp;temperature;humidity
6142;DHT22;71289;51.552;6.210;2024-03-17T00:00:43;6.90;99.90
6142;DHT22;71289;51.552;6.210;2024-03-17T00:03:09;7.00;99.90
6142;DHT22;71289;51.552;6.210;2024-03-17T00:05:37;7.00;99.90
6142;DHT22;71289;51.552;6.210;2024-03-17T00:08:06;7.00;99.90
6142;DHT22;71289;51.552;6.210;2024-03-17T00:10:32;7.00;99.90
6142;DHT22;71289;51.552;6.210;2024-03-17T00:12:58;7.10;99.90
6142;DHT22;71289;51.552;6.210;2024-03-17T00:15:24;7.10;99.90
6142;DHT22;71289;51.552;6.210;2024-03-17T00:17:49;7.10;99.90
6142;DHT22;71289;51.552;6.210;2024-03-17T00:20:15;6.80;99.90
6142;DHT22;71289;51.552;6.210;2024-03-17T00:22:48;6.90;99.90
6142;DHT22;71289;51.552;6.210;2024-03-17T00:25:14;6.80;99.90
6142;DHT22;71289;51.552;6.210;2024-03-17T00:27:39;6.80;99.90
6142;DHT22;71289;51.552;6.210;2024-03-17T00:30:09;6.80;99.90
6142;DHT22;71289;51.552;6.210;2024-03-17T00:32:38;6.70;99.90
6142;DHT22;71289;51.552;6.210;2024-03-17T00:35:05;6.70;99.90
6142;DHT22;71289;51.552;6.210;2024-03-17T00:37:31;6.80;99.90
6142;DHT22;71289;51.552;6.210;2024-03-17T00:39:59;6.80;99.90
6142;DHT22;71289;51.552;6.210;2024-03-17T00:42:24;6.80;99.90
6142;DHT22;71289;51.552;6.210;2024-03-17T00:44:50;7.00;99.90
6142;DHT22;71289;51.552;6.210;2024-03-17T00:47:15;6.70;99.90
6142;DHT22;71289;51.552;6.210;2024-03-17T00:49:41;6.60;99.90
6142;DHT22;71289;51.552;6.210;2024-03-17T00:52:07;6.70;99.90
6142;DHT22;71289;51.552;6.210;2024-03-17T00:54:32;6.70;99.90
6142;DHT22;71289;51.552;6.210;2024-03-17T00:56:58;6.70;99.90
6142;DHT22;71289;51.552;6.210;2024-03-17T00:59:23;7.00;99.90
6142;DHT22;71289;51.552;6.210;2024-03-17T01:01:49;6.70;99.90
6142;DHT22;71289;51.552;6.210;2024-03-17T01:04:15;6.70;99.90
6142;DHT22;71289;51.552;6.210;2024-03-17T01:06:40;6.70;99.90
6142;DHT22;71289;51.552;6.210;2024-03-17T01:09:06;6.70;99.90
6142;DHT22;71289;51.552;6.210;2024-03-17T01:11:33;6.60;99.90
6142;DHT22;71289;51.552;6.210;2024-03-17T01:13:59;6.60;99.90
6142;DHT22;71289;51.552;6.210;2024-03-17T01:16:24;6.50;99.90
6142;DHT22;71289;51.552;6.210;2024-03-17T01:18:50;6.60;99.90
6142;DHT22;71289;51.552;6.210;2024-03-17T01:21:15;6.60;99.90
6142;DHT22;71289;51.552;6.210;2024-03-17T01:23:41;6.50;99.90
6142;DHT22;71289;51.552;6.210;2024-03-17T01:26:06;6.70;99.90
6142;DHT22;71289;51.552;6.210;2024-03-17T01:28:32;6.60;99.90
6142;DHT22;71289;51.552;6.210;2024-03-17T01:30:58;6.90;99.90
6142;DHT22;71289;51.552;6.210;2024-03-17T01:33:23;6.60;99.90
6142;DHT22;71289;51.552;6.210;2024-03-17T01:35:49;6.60;99.90
6142;DHT22;71289;51.552;6.210;2024-03-17T01:38:14;6.60;99.90
6142;DHT22;71289;51.552;6.210;2024-03-17T01:40:40;6.50;99.90
6142;DHT22;71289;51.552;6.210;2024-03-17T01:43:10;6.70;99.90
6142;DHT22;71289;51.552;6.210;2024-03-17T01:45:35;6.50;99.90
6142;DHT22;71289;51.552;6.210;2024-03-17T01:48:02;6.50;99.90
6142;DHT22;71289;51.552;6.210;2024-03-17T01:50:32;6.50;99.90
6142;DHT22;71289;51.552;6.210;2024-03-17T01:53:02;6.40;99.90
6142;DHT22;71289;51.552;6.210;2024-03-17T01:55:29;6.40;99.90
6142;DHT22;71289;51.552;6.210;2024-03-17T01:57:56;6.50;99.90
6142;DHT22;71289;51.552;6.210;2024-03-17T02:00:21;6.50;99.90
6142;DHT22;71289;51.552;6.210;2024-03-17T02:02:48;6.40;99.90
6142;DHT22;71289;51.552;6.210;2024-03-17T02:05:14;6.30;99.90
6142;DHT22;71289;51.552;6.210;2024-03-17T02:07:39;6.70;99.90
6142;DHT22;71289;51.552;6.210;2024-03-17T02:10:06;6.40;99.90
6142;DHT22;71289;51.552;6.210;2024-03-17T02:12:34;6.50;99.90
6142;DHT22;71289;51.552;6.210;2024-03-17T02:15:00;6.60;99.90
6142;DHT22;71289;51.552;6.210;2024-03-17T02:17:26;6.70;99.90
6142;DHT22;71289;51.552;6.210;2024-03-17T02:19:54;6.70;99.90
6142;DHT22;71289;51.552;6.210;2024-03-17T02:22:19;6.70;99.90
6142;DHT22;71289;51.552;6.210;2024-03-17T02:24:45;6.70;99.90
6142;DHT22;71289;51.552;6.210;2024-03-17T02:27:12;7.00;99.90
6142;DHT22;71289;51.552;6.210;2024-03-17T02:29:38;7.00;99.90
6142;DHT22;71289;51.552;6.210;2024-03-17T02:32:07;6.70;99.90
6142;DHT22;71289;51.552;6.210;2024-03-17T02:34:34;6.70;99.90
6142;DHT22;71289;51.552;6.210;2024-03-17T02:37:00;7.00;99.90
6142;DHT22;71289;51.552;6.210;2024-03-17T02:39:26;6.60;99.90
6142;DHT22;71289;51.552;6.210;2024-03-17T02:42:02;6.70;99.90
6142;DHT22;71289;51.552;6.210;2024-03-17T02:44:29;6.70;99.90
6142;DHT22;71289;51.552;6.210;2024-03-17T02:46:59;6.60;99.90
6142;DHT22;71289;51.552;6.210;2024-03-17T02:49:26;6.70;99.90
6142;DHT22;71289;51.552;6.210;2024-03-17T02:52:02;6.70;99.90
6142;DHT22;71289;51.552;6.210;2024-03-17T02:54:28;6.70;99.90
6142;DHT22;71289;51.552;6.210;2024-03-17T02:56:53;6.70;99.90
6142;DHT22;71289;51.552;6.210;2024-03-17T02:59:19;6.70;99.90
6142;DHT22;71289;51.552;6.210;2024-03-17T03:01:44;6.90;99.90
6142;DHT22;71289;51.552;6.210;2024-03-17T03:04:10;6.50;99.90
6142;DHT22;71289;51.552;6.210;2024-03-17T03:06:36;6.40;99.90
6142;DHT22;71289;51.552;6.210;2024-03-17T03:09:03;6.40;99.90
6142;DHT22;71289;51.552;6.210;2024-03-17T03:11:31;6.40;99.90
6142;DHT22;71289;51.552;6.210;2024-03-17T03:13:56;6.40;99.90
6142;DHT22;71289;51.552;6.210;2024-03-17T03:16:22;6.30;99.90
6142;DHT22;71289;51.552;6.210;2024-03-17T03:18:50;6.10;99.90
6142;DHT22;71289;51.552;6.210;2024-03-17T03:21:16;6.00;99.90
6142;DHT22;71289;51.552;6.210;2024-03-17T03:23:41;5.90;99.90
6142;DHT22;71289;51.552;6.210;2024-03-17T03:26:07;5.90;99.90
6142;DHT22;71289;51.552;6.210;2024-03-17T03:28:35;5.90;99.90
6142;DHT22;71289;51.552;6.210;2024-03-17T03:31:01;6.00;99.90
6142;DHT22;71289;51.552;6.210;2024-03-17T03:33:27;6.10;99.90
6142;DHT22;71289;51.552;6.210;2024-03-17T03:35:53;6.10;99.90
6142;DHT22;71289;51.552;6.210;2024-03-17T03:38:19;6.00;99.90
6142;DHT22;71289;51.552;6.210;2024-03-17T03:40:45;6.00;99.90
6142;DHT22;71289;51.552;6.210;2024-03-17T03:43:11;6.00;99.90
6142;DHT22;71289;51.552;6.210;2024-03-17T03:45:38;6.00;99.90
6142;DHT22;71289;51.552;6.210;2024-03-17T03:48:04;6.00;99.90
6142;DHT22;71289;51.552;6.210;2024-03-17T03:50:30;6.00;99.90
6142;DHT22;71289;51.552;6.210;2024-03-17T03:52:56;6.10;99.90
6142;DHT22;71289;51.552;6.210;2024-03-17T03:55:22;6.10;99.90
6142;DHT22;71289;51.552;6.210;2024-03-17T03:57:49;6.10;99.90
6142;DHT22;71289;51.552;6.210;2024-03-17T04:00:18;6.40;99.90
6142;DHT22;71289;51.552;6.210;2024-03-17T04:02:52;6.20;99.90
6142;DHT22;71289;51.552;6.210;2024-03-17T04:05:18;6.20;99.90
6142;DHT22;71289;51.552;6.210;2024-03-17T04:07:45;6.20;99.90
6142;DHT22;71289;51.552;6.210;2024-03-17T04:10:12;6.30;99.90
6142;DHT22;71289;51.552;6.210;2024-03-17T04:12:38;6.30;99.90
6142;DHT22;71289;51.552;6.210;2024-03-17T04:15:04;6.40;99.90
6142;DHT22;71289;51.552;6.210;2024-03-17T04:17:32;6.40;99.90
6142;DHT22;71289;51.552;6.210;2024-03-17T04:19:58;6.30;99.90
6142;DHT22;71289;51.552;6.210;2024-03-17T04:22:24;6.40;99.90
6142;DHT22;71289;51.552;6.210;2024-03-17T04:24:51;6.40;99.90
6142;DHT22;71289;51.552;6.210;2024-03-17T04:27:24;6.50;99.90
6142;DHT22;71289;51.552;6.210;2024-03-17T04:29:53;6.50;99.90
6142;DHT22;71289;51.552;6.210;2024-03-17T04:32:19;6.50;99.90
6142;DHT22;71289;51.552;6.210;2024-03-17T04:34:45;6.60;99.90
6142;DHT22;71289;51.552;6.210;2024-03-17T04:37:11;6.70;99.90
6142;DHT22;71289;51.552;6.210;2024-03-17T04:39:38;7.00;99.90
6142;DHT22;71289;51.552;6.210;2024-03-17T04:42:05;6.80;99.90
6142;DHT22;71289;51.552;6.210;2024-03-17T04:44:31;6.90;99.90
6142;DHT22;71289;51.552;6.210;2024-03-17T04:46:57;6.90;99.90
6142;DHT22;71289;51.552;6.210;2024-03-17T04:49:23;6.90;99.90
6142;DHT22;71289;51.552;6.210;2024-03-17T04:51:48;7.00;99.90
6142;DHT22;71289;51.552;6.210;2024-03-17T04:54:15;7.00;99.90
6142;DHT22;71289;51.552;6.210;2024-03-17T04:56:40;7.10;99.90
6142;DHT22;71289;51.552;6.210;2024-03-17T04:59:06;7.10;99.90
6142;DHT22;71289;51.552;6.210;2024-03-17T05:01:32;7.10;99.90
6142;DHT22;71289;51.552;6.210;2024-03-17T05:04:02;7.10;99.90
6142;DHT22;71289;51.552;6.210;2024-03-17T05:06:28;7.10;99.90
6142;DHT22;71289;51.552;6.210;2024-03-17T05:08:54;7.10;99.90
6142;DHT22;71289;51.552;6.210;2024-03-17T05:11:19;7.10;99.90
6142;DHT22;71289;51.552;6.210;2024-03-17T05:13:45;7.10;99.90
6142;DHT22;71289;51.552;6.210;2024-03-17T05:16:11;7.10;99.90
6142;DHT22;71289;51.552;6.210;2024-03-17T05:18:37;7.00;99.90
6142;DHT22;71289;51.552;6.210;2024-03-17T05:21:07;7.10;99.90
6142;DHT22;71289;51.552;6.210;2024-03-17T05:23:35;7.10;99.90
6142;DHT22;71289;51.552;6.210;2024-03-17T05:26:01;7.10;99.90
6142;DHT22;71289;51.552;6.210;2024-03-17T05:28:29;7.20;99.90
6142;DHT22;71289;51.552;6.210;2024-03-17T05:30:55;7.20;99.90
6142;DHT22;71289;51.552;6.210;2024-03-17T05:33:22;7.30;99.90
6142;DHT22;71289;51.552;6.210;2024-03-17T05:35:49;7.50;99.90
6142;DHT22;71289;51.552;6.210;2024-03-17T05:38:18;7.30;99.90
6142;DHT22;71289;51.552;6.210;2024-03-17T05:40:52;7.30;99.90
6142;DHT22;71289;51.552;6.210;2024-03-17T05:43:17;7.20;99.90
6142;DHT22;71289;51.552;6.210;2024-03-17T05:45:43;7.60;99.90
6142;DHT22;71289;51.552;6.210;2024-03-17T05:48:09;7.30;99.90
6142;DHT22;71289;51.552;6.210;2024-03-17T05:50:35;7.20;99.90
6142;DHT22;71289;51.552;6.210;2024-03-17T05:53:00;7.20;99.90
6142;DHT22;71289;51.552;6.210;2024-03-17T05:55:26;7.50;99.90
6142;DHT22;71289;51.552;6.210;2024-03-17T05:57:52;7.20;99.90
6142;DHT22;71289;51.552;6.210;2024-03-17T06:00:17;7.20;99.90
6142;DHT22;71289;51.552;6.210;2024-03-17T06:02:44;7.20;99.90
6142;DHT22;71289;51.552;6.210;2024-03-17T06:05:09;7.10;99.90
6142;DHT22;71289;51.552;6.210;2024-03-17T06:07:37;7.10;99.90
6142;DHT22;71289;51.552;6.210;2024-03-17T06:10:03;7.10;99.90
6142;DHT22;71289;51.552;6.210;2024-03-17T06:12:29;7.10;99.90
6142;DHT22;71289;51.552;6.210;2024-03-17T06:14:56;7.10;99.90
6142;DHT22;71289;51.552;6.210;2024-03-17T06:17:21;7.00;99.90
6142;DHT22;71289;51.552;6.210;2024-03-17T06:19:47;7.00;99.90
6142;DHT22;71289;51.552;6.210;2024-03-17T06:22:12;7.10;99.90
6142;DHT22;71289;51.552;6.210;2024-03-17T06:24:38;7.20;99.90
6142;DHT22;71289;51.552;6.210;2024-03-17T06:27:04;7.20;99.90
6142;DHT22;71289;51.552;6.210;2024-03-17T06:29:32;7.20;99.90
6142;DHT22;71289;51.552;6.210;2024-03-17T06:31:58;7.30;99.90
6142;DHT22;71289;51.552;6.210;2024-03-17T06:34:23;7.20;99.90
6142;DHT22;71289;51.552;6.210;2024-03-17T06:36:49;7.20;99.90
6142;DHT22;71289;51.552;6.210;2024-03-17T06:39:14;7.30;99.90
6142;DHT22;71289;51.552;6.210;2024-03-17T06:41:42;7.10;99.90
6142;DHT22;71289;51.552;6.210;2024-03-17T06:44:08;7.20;99.90
6142;DHT22;71289;51.552;6.210;2024-03-17T06:46:33;7.20;99.90
6142;DHT22;71289;51.552;6.210;2024-03-17T06:48:59;7.30;99.90
6142;DHT22;71289;51.552;6.210;2024-03-17T06:51:25;7.40;99.90
6142;DHT22;71289;51.552;6.210;2024-03-17T06:53:50;7.40;99.90
6142;DHT22;71289;51.552;6.210;2024-03-17T06:56:16;7.30;99.90
6142;DHT22;71289;51.552;6.210;2024-03-17T06:58:41;7.60;99.90
6142;DHT22;71289;51.552;6.210;2024-03-17T07:01:08;7.60;99.90
6142;DHT22;71289;51.552;6.210;2024-03-17T07:03:34;7.60;99.90
6142;DHT22;71289;51.552;6.210;2024-03-17T07:06:01;7.70;99.90
6142;DHT22;71289;51.552;6.210;2024-03-17T07:08:31;7.70;99.90
6142;DHT22;71289;51.552;6.210;2024-03-17T07:11:01;7.70;99.90
6142;DHT22;71289;51.552;6.210;2024-03-17T07:13:32;7.70;99.90
6142;DHT22;71289;51.552;6.210;2024-03-17T07:15:59;7.70;99.90
6142;DHT22;71289;51.552;6.210;2024-03-17T07:18:26;7.70;99.90
6142;DHT22;71289;51.552;6.210;2024-03-17T07:20:52;7.80;99.90
6142;DHT22;71289;51.552;6.210;2024-03-17T07:23:17;7.90;99.90
6142;DHT22;71289;51.552;6.210;2024-03-17T07:25:53;8.30;99.90
6142;DHT22;71289;51.552;6.210;2024-03-17T07:28:19;8.10;99.90
6142;DHT22;71289;51.552;6.210;2024-03-17T07:30:52;8.10;99.90
6142;DHT22;71289;51.552;6.210;2024-03-17T07:33:18;8.10;99.90
6142;DHT22;71289;51.552;6.210;2024-03-17T07:35:56;8.20;99.90
6142;DHT22;71289;51.552;6.210;2024-03-17T07:38:29;8.20;99.90
6142;DHT22;71289;51.552;6.210;2024-03-17T07:41:07;8.40;99.90
6142;DHT22;71289;51.552;6.210;2024-03-17T07:43:37;8.20;99.90
6142;DHT22;71289;51.552;6.210;2024-03-17T07:46:07;8.10;99.90
6142;DHT22;71289;51.552;6.210;2024-03-17T07:48:35;8.20;99.90
6142;DHT22;71289;51.552;6.210;2024-03-17T07:51:02;8.20;99.90
6142;DHT22;71289;51.552;6.210;2024-03-17T07:53:29;8.50;99.90
6142;DHT22;71289;51.552;6.210;2024-03-17T07:55:59;8.50;99.90
6142;DHT22;71289;51.552;6.210;2024-03-17T07:58:26;8.60;99.90
6142;DHT22;71289;51.552;6.210;2024-03-17T08:00:53;8.80;99.90
6142;DHT22;71289;51.552;6.210;2024-03-17T08:03:21;8.90;99.90
6142;DHT22;71289;51.552;6.210;2024-03-17T08:05:50;9.10;99.90
6142;DHT22;71289;51.552;6.210;2024-03-17T08:08:17;9.20;99.90
6142;DHT22;71289;51.552;6.210;2024-03-17T08:10:42;9.40;99.90
6142;DHT22;71289;51.552;6.210;2024-03-17T08:13:08;9.50;99.90
6142;DHT22;71289;51.552;6.210;2024-03-17T08:15:38;9.50;99.90
6142;DHT22;71289;51.552;6.210;2024-03-17T08:18:04;9.60;99.90
6142;DHT22;71289;51.552;6.210;2024-03-17T08:20:39;9.60;99.90
6142;DHT22;71289;51.552;6.210;2024-03-17T08:23:05;9.50;99.90
6142;DHT22;71289;51.552;6.210;2024-03-17T08:25:31;9.50;99.90
6142;DHT22;71289;51.552;6.210;2024-03-17T08:27:57;9.50;99.90
6142;DHT22;71289;51.552;6.210;2024-03-17T08:30:23;9.50;99.90
6142;DHT22;71289;51.552;6.210;2024-03-17T08:32:48;9.40;99.90
6142;DHT22;71289;51.552;6.210;2024-03-17T08:35:14;9.40;99.90
6142;DHT22;71289;51.552;6.210;2024-03-17T08:37:40;9.40;99.90
6142;DHT22;71289;51.552;6.210;2024-03-17T08:40:06;9.40;99.90
6142;DHT22;71289;51.552;6.210;2024-03-17T08:42:32;9.50;99.90
6142;DHT22;71289;51.552;6.210;2024-03-17T08:44:58;9.60;99.90
6142;DHT22;71289;51.552;6.210;2024-03-17T08:47:23;9.70;99.90
6142;DHT22;71289;51.552;6.210;2024-03-17T08:49:52;9.70;99.90
6142;DHT22;71289;51.552;6.210;2024-03-17T08:52:18;9.60;99.90
6142;DHT22;71289;51.552;6.210;2024-03-17T08:54:47;9.70;99.90
6142;DHT22;71289;51.552;6.210;2024-03-17T08:57:13;9.60;99.90
6142;DHT22;71289;51.552;6.210;2024-03-17T08:59:39;9.60;99.90
6142;DHT22;71289;51.552;6.210;2024-03-17T09:02:05;9.50;99.90
6142;DHT22;71289;51.552;6.210;2024-03-17T09:04:35;9.40;99.90
6142;DHT22;71289;51.552;6.210;2024-03-17T09:07:00;9.50;99.90
6142;DHT22;71289;51.552;6.210;2024-03-17T09:09:29;9.50;99.90
6142;DHT22;71289;51.552;6.210;2024-03-17T09:11:54;9.50;99.90
6142;DHT22;71289;51.552;6.210;2024-03-17T09:14:20;9.60;99.90
6142;DHT22;71289;51.552;6.210;2024-03-17T09:16:47;9.60;99.90
6142;DHT22;71289;51.552;6.210;2024-03-17T09:19:13;9.60;99.90
6142;DHT22;71289;51.552;6.210;2024-03-17T09:21:38;9.60;99.90
6142;DHT22;71289;51.552;6.210;2024-03-17T09:24:06;9.70;99.90
6142;DHT22;71289;51.552;6.210;2024-03-17T09:26:33;9.80;99.90
6142;DHT22;71289;51.552;6.210;2024-03-17T09:28:59;9.90;99.90
6142;DHT22;71289;51.552;6.210;2024-03-17T09:31:25;9.80;99.90
6142;DHT22;71289;51.552;6.210;2024-03-17T09:33:51;9.90;99.90
6142;DHT22;71289;51.552;6.210;2024-03-17T09:36:17;10.20;99.90
6142;DHT22;71289;51.552;6.210;2024-03-17T09:38:44;9.80;99.90
6142;DHT22;71289;51.552;6.210;2024-03-17T09:41:25;9.80;99.90
6142;DHT22;71289;51.552;6.210;2024-03-17T09:43:55;9.90;99.90
6142;DHT22;71289;51.552;6.210;2024-03-17T09:46:25;10.00;99.90
6142;DHT22;71289;51.552;6.210;2024-03-17T09:48:53;10.00;99.90
6142;DHT22;71289;51.552;6.210;2024-03-17T09:51:20;10.10;99.90
6142;DHT22;71289;51.552;6.210;2024-03-17T09:53:46;10.20;99.90
6142;DHT22;71289;51.552;6.210;2024-03-17T09:56:17;10.20;99.90
6142;DHT22;71289;51.552;6.210;2024-03-17T09:58:48;10.20;99.90
6142;DHT22;71289;51.552;6.210;2024-03-17T10:01:14;10.30;99.90
6142;DHT22;71289;51.552;6.210;2024-03-17T10:06:14;10.40;99.90
6142;DHT22;71289;51.552;6.210;2024-03-17T10:08:44;10.50;99.90
6142;DHT22;71289;51.552;6.210;2024-03-17T10:11:11;10.50;99.90
6142;DHT22;71289;51.552;6.210;2024-03-17T10:13:37;10.60;99.90
6142;DHT22;71289;51.552;6.210;2024-03-17T10:16:03;10.80;99.90
6142;DHT22;71289;51.552;6.210;2024-03-17T10:18:29;10.90;99.90
6142;DHT22;71289;51.552;6.210;2024-03-17T10:20:55;10.90;99.90
6142;DHT22;71289;51.552;6.210;2024-03-17T10:23:23;11.00;99.90
6142;DHT22;71289;51.552;6.210;2024-03-17T10:25:48;11.10;99.90
6142;DHT22;71289;51.552;6.210;2024-03-17T10:28:15;11.10;99.90
6142;DHT22;71289;51.552;6.210;2024-03-17T10:30:42;11.40;99.90
6142;DHT22;71289;51.552;6.210;2024-03-17T10:33:23;11.50;99.90
6142;DHT22;71289;51.552;6.210;2024-03-17T10:35:50;11.40;99.90
6142;DHT22;71289;51.552;6.210;2024-03-17T10:38:23;11.40;99.90
6142;DHT22;71289;51.552;6.210;2024-03-17T10:40:48;11.30;99.90
6142;DHT22;71289;51.552;6.210;2024-03-17T10:43:14;11.40;99.90
6142;DHT22;71289;51.552;6.210;2024-03-17T10:45:40;11.40;99.90
6142;DHT22;71289;51.552;6.210;2024-03-17T10:48:07;11.40;99.90
6142;DHT22;71289;51.552;6.210;2024-03-17T10:50:37;11.40;99.90
6142;DHT22;71289;51.552;6.210;2024-03-17T10:53:04;11.30;99.90
6142;DHT22;71289;51.552;6.210;2024-03-17T10:55:43;11.50;99.90
6142;DHT22;71289;51.552;6.210;2024-03-17T11:00:56;11.40;99.90
6142;DHT22;71289;51.552;6.210;2024-03-17T11:03:22;11.40;99.90
6142;DHT22;71289;51.552;6.210;2024-03-17T11:05:49;11.40;99.90
6142;DHT22;71289;51.552;6.210;2024-03-17T11:08:17;11.50;99.90
6142;DHT22;71289;51.552;6.210;2024-03-17T11:10:50;11.60;99.90
6142;DHT22;71289;51.552;6.210;2024-03-17T11:13:48;11.70;99.90
6142;DHT22;71289;51.552;6.210;2024-03-17T11:16:26;11.80;99.90
6142;DHT22;71289;51.552;6.210;2024-03-17T11:18:52;11.90;99.90
6142;DHT22;71289;51.552;6.210;2024-03-17T11:21:20;11.90;99.90
6142;DHT22;71289;51.552;6.210;2024-03-17T11:24:02;12.00;99.90
6142;DHT22;71289;51.552;6.210;2024-03-17T11:26:33;12.20;99.90
6142;DHT22;71289;51.552;6.210;2024-03-17T11:28:59;12.30;99.90
6142;DHT22;71289;51.552;6.210;2024-03-17T11:31:40;12.40;99.90
6142;DHT22;71289;51.552;6.210;2024-03-17T11:34:30;12.40;99.90
6142;DHT22;71289;51.552;6.210;2024-03-17T11:36:57;12.40;99.90
6142;DHT22;71289;51.552;6.210;2024-03-17T11:39:54;12.30;99.90
6142;DHT22;71289;51.552;6.210;2024-03-17T11:42:24;12.50;99.90
6142;DHT22;71289;51.552;6.210;2024-03-17T11:45:04;12.60;99.90
6142;DHT22;71289;51.552;6.210;2024-03-17T11:47:37;12.70;99.90
6142;DHT22;71289;51.552;6.210;2024-03-17T11:50:05;12.90;99.90
6142;DHT22;71289;51.552;6.210;2024-03-17T11:52:31;12.90;99.90
6142;DHT22;71289;51.552;6.210;2024-03-17T11:54:57;12.90;99.90
6142;DHT22;71289;51.552;6.210;2024-03-17T11:57:24;12.90;99.90
6142;DHT22;71289;51.552;6.210;2024-03-17T11:59:51;13.10;99.90
6142;DHT22;71289;51.552;6.210;2024-03-17T12:02:19;13.00;99.90
6142;DHT22;71289;51.552;6.210;2024-03-17T12:04:45;13.00;99.90
6142;DHT22;71289;51.552;6.210;2024-03-17T12:07:16;12.80;99.90
6142;DHT22;71289;51.552;6.210;2024-03-17T12:09:43;13.10;99.90
6142;DHT22;71289;51.552;6.210;2024-03-17T12:12:11;12.90;99.90
6142;DHT22;71289;51.552;6.210;2024-03-17T12:14:37;13.00;99.90
6142;DHT22;71289;51.552;6.210;2024-03-17T12:17:10;12.90;99.90
6142;DHT22;71289;51.552;6.210;2024-03-17T12:19:37;12.90;99.90
6142;DHT22;71289;51.552;6.210;2024-03-17T12:22:06;12.90;99.90
6142;DHT22;71289;51.552;6.210;2024-03-17T12:24:33;12.80;99.90
6142;DHT22;71289;51.552;6.210;2024-03-17T12:27:00;12.80;99.90
6142;DHT22;71289;51.552;6.210;2024-03-17T12:29:38;12.80;99.90
6142;DHT22;71289;51.552;6.210;2024-03-17T12:32:23;12.70;99.90
6142;DHT22;71289;51.552;6.210;2024-03-17T12:34:55;12.90;99.90
6142;DHT22;71289;51.552;6.210;2024-03-17T12:37:27;12.90;99.90
6142;DHT22;71289;51.552;6.210;2024-03-17T12:40:00;12.90;99.90
6142;DHT22;71289;51.552;6.210;2024-03-17T12:42:26;12.90;99.90
6142;DHT22;71289;51.552;6.210;2024-03-17T12:44:53;13.00;99.90
6142;DHT22;71289;51.552;6.210;2024-03-17T12:47:24;13.00;99.90
6142;DHT22;71289;51.552;6.210;2024-03-17T12:49:57;13.00;99.90
6142;DHT22;71289;51.552;6.210;2024-03-17T12:55:00;12.90;99.90
6142;DHT22;71289;51.552;6.210;2024-03-17T12:57:46;13.00;99.90
6142;DHT22;71289;51.552;6.210;2024-03-17T13:00:44;13.10;99.90
6142;DHT22;71289;51.552;6.210;2024-03-17T13:03:25;13.20;99.90
6142;DHT22;71289;51.552;6.210;2024-03-17T13:05:51;13.30;99.90
6142;DHT22;71289;51.552;6.210;2024-03-17T13:08:17;13.20;99.90
6142;DHT22;71289;51.552;6.210;2024-03-17T13:10:43;13.40;99.90
6142;DHT22;71289;51.552;6.210;2024-03-17T13:13:09;13.20;99.90
6142;DHT22;71289;51.552;6.210;2024-03-17T13:15:35;13.20;99.90
6142;DHT22;71289;51.552;6.210;2024-03-17T13:18:02;13.10;99.90
6142;DHT22;71289;51.552;6.210;2024-03-17T13:20:30;13.00;99.90
6142;DHT22;71289;51.552;6.210;2024-03-17T13:22:56;13.30;99.90
6142;DHT22;71289;51.552;6.210;2024-03-17T13:25:24;13.30;99.90
6142;DHT22;71289;51.552;6.210;2024-03-17T13:27:53;13.30;99.90
6142;DHT22;71289;51.552;6.210;2024-03-17T13:30:21;13.40;99.90
6142;DHT22;71289;51.552;6.210;2024-03-17T13:32:49;13.40;99.90
6142;DHT22;71289;51.552;6.210;2024-03-17T13:35:18;13.50;99.90
6142;DHT22;71289;51.552;6.210;2024-03-17T13:37:49;13.60;99.90
6142;DHT22;71289;51.552;6.210;2024-03-17T13:40:16;13.60;99.90
6142;DHT22;71289;51.552;6.210;2024-03-17T13:42:44;13.60;99.90
6142;DHT22;71289;51.552;6.210;2024-03-17T13:45:12;13.60;99.90
6142;DHT22;71289;51.552;6.210;2024-03-17T13:47:38;13.70;99.90
6142;DHT22;71289;51.552;6.210;2024-03-17T13:50:04;13.70;99.90
6142;DHT22;71289;51.552;6.210;2024-03-17T13:52:42;13.70;99.90
6142;DHT22;71289;51.552;6.210;2024-03-17T13:55:19;13.80;99.90
6142;DHT22;71289;51.552;6.210;2024-03-17T13:57:55;13.80;99.90
6142;DHT22;71289;51.552;6.210;2024-03-17T14:00:26;13.90;99.90
6142;DHT22;71289;51.552;6.210;2024-03-17T14:02:52;13.80;99.90
6142;DHT22;71289;51.552;6.210;2024-03-17T14:05:20;13.80;99.90
6142;DHT22;71289;51.552;6.210;2024-03-17T14:07:46;13.80;99.90
6142;DHT22;71289;51.552;6.210;2024-03-17T14:10:15;13.80;99.90
6142;DHT22;71289;51.552;6.210;2024-03-17T14:12:40;13.90;99.90
6142;DHT22;71289;51.552;6.210;2024-03-17T14:15:08;13.90;99.90
6142;DHT22;71289;51.552;6.210;2024-03-17T14:17:43;13.80;99.90
6142;DHT22;71289;51.552;6.210;2024-03-17T14:20:09;13.80;99.90
6142;DHT22;71289;51.552;6.210;2024-03-17T14:22:40;13.90;99.90
6142;DHT22;71289;51.552;6.210;2024-03-17T14:25:08;13.90;99.90
6142;DHT22;71289;51.552;6.210;2024-03-17T14:27:36;14.00;99.90
6142;DHT22;71289;51.552;6.210;2024-03-17T14:30:02;14.10;99.90
6142;DHT22;71289;51.552;6.210;2024-03-17T14:32:29;14.10;99.90
6142;DHT22;71289;51.552;6.210;2024-03-17T14:34:55;14.20;99.90
6142;DHT22;71289;51.552;6.210;2024-03-17T14:37:20;14.30;99.90
6142;DHT22;71289;51.552;6.210;2024-03-17T14:39:48;14.40;99.90
6142;DHT22;71289;51.552;6.210;2024-03-17T14:42:13;14.50;99.90
6142;DHT22;71289;51.552;6.210;2024-03-17T14:44:39;14.50;99.90
6142;DHT22;71289;51.552;6.210;2024-03-17T14:47:04;14.60;99.90
6142;DHT22;71289;51.552;6.210;2024-03-17T14:49:31;14.60;99.90
6142;DHT22;71289;51.552;6.210;2024-03-17T14:51:57;14.60;99.90
6142;DHT22;71289;51.552;6.210;2024-03-17T14:54:22;14.50;99.90
6142;DHT22;71289;51.552;6.210;2024-03-17T14:56:48;14.50;99.90
6142;DHT22;71289;51.552;6.210;2024-03-17T14:59:14;14.70;99.90
6142;DHT22;71289;51.552;6.210;2024-03-17T15:01:42;14.80;99.90
6142;DHT22;71289;51.552;6.210;2024-03-17T15:04:08;14.90;99.90
6142;DHT22;71289;51.552;6.210;2024-03-17T15:06:34;15.00;99.90
6142;DHT22;71289;51.552;6.210;2024-03-17T15:09:01;15.20;99.90
6142;DHT22;71289;51.552;6.210;2024-03-17T15:11:28;15.30;99.90
6142;DHT22;71289;51.552;6.210;2024-03-17T15:13:53;15.00;99.90
6142;DHT22;71289;51.552;6.210;2024-03-17T15:16:19;15.00;99.90
6142;DHT22;71289;51.552;6.210;2024-03-17T15:18:44;15.00;99.90
6142;DHT22;71289;51.552;6.210;2024-03-17T15:21:10;15.00;99.90
6142;DHT22;71289;51.552;6.210;2024-03-17T15:23:35;15.00;99.90
6142;DHT22;71289;51.552;6.210;2024-03-17T15:26:02;15.20;99.90
6142;DHT22;71289;51.552;6.210;2024-03-17T15:28:40;15.00;99.90
6142;DHT22;71289;51.552;6.210;2024-03-17T15:31:06;15.10;99.90
6142;DHT22;71289;51.552;6.210;2024-03-17T15:33:36;15.20;99.90
6142;DHT22;71289;51.552;6.210;2024-03-17T15:36:03;15.20;99.90
6142;DHT22;71289;51.552;6.210;2024-03-17T15:38:33;15.20;99.90
6142;DHT22;71289;51.552;6.210;2024-03-17T15:41:06;15.10;99.90
6142;DHT22;71289;51.552;6.210;2024-03-17T15:43:39;15.20;99.90
6142;DHT22;71289;51.552;6.210;2024-03-17T15:46:17;15.20;99.90
6142;DHT22;71289;51.552;6.210;2024-03-17T15:48:44;15.30;99.90
6142;DHT22;71289;51.552;6.210;2024-03-17T15:51:09;15.30;99.90
6142;DHT22;71289;51.552;6.210;2024-03-17T15:53:35;15.10;99.90
6142;DHT22;71289;51.552;6.210;2024-03-17T15:56:02;15.30;99.90
6142;DHT22;71289;51.552;6.210;2024-03-17T15:58:29;15.10;99.90
6142;DHT22;71289;51.552;6.210;2024-03-17T16:00:56;15.00;99.90
6142;DHT22;71289;51.552;6.210;2024-03-17T16:03:29;15.10;99.90
6142;DHT22;71289;51.552;6.210;2024-03-17T16:05:57;15.00;99.90